createdAt,value
2019-05-17T00:03:08.954Z,11.90
2019-05-17T00:13:14.705Z,11.80
2019-05-17T00:23:21.079Z,11.70
2019-05-17T00:33:27.218Z,11.60
2019-05-17T00:43:33.175Z,11.40
2019-05-17T00:53:38.587Z,11.50
2019-05-17T01:03:44.030Z,11.60
2019-05-17T01:13:49.477Z,12.30
2019-05-17T01:23:56.239Z,11.90
2019-05-17T01:34:01.879Z,11.90
2019-05-17T01:44:07.546Z,11.90
2019-05-17T01:54:13.091Z,11.80
2019-05-17T02:04:18.779Z,11.80
2019-05-17T02:14:26.639Z,11.80
2019-05-17T02:24:31.390Z,11.70
2019-05-17T02:34:37.801Z,11.70
2019-05-17T02:44:43.757Z,11.90
2019-05-17T02:54:52.452Z,11.60
2019-05-17T03:04:56.688Z,11.50
2019-05-17T03:15:04.087Z,11.60
2019-05-17T03:25:09.323Z,11.80
2019-05-17T03:35:17.174Z,11.60
2019-05-17T03:45:22.804Z,11.60
2019-05-17T03:55:28.565Z,11.60
2019-05-17T04:05:34.044Z,11.70
2019-05-17T04:15:39.517Z,11.70
2019-05-17T04:25:45.000Z,11.50
2019-05-17T04:35:53.788Z,11.70
2019-05-17T04:45:57.474Z,11.90
2019-05-17T04:56:03.394Z,11.80
2019-05-17T05:06:09.036Z,11.90
2019-05-17T05:16:15.459Z,11.60
2019-05-17T05:26:22.254Z,11.70
2019-05-17T05:36:27.794Z,11.70
2019-05-17T05:46:33.210Z,11.60
2019-05-17T05:56:38.635Z,11.60
2019-05-17T06:06:44.139Z,11.70
2019-05-17T06:16:51.846Z,11.60
2019-05-17T06:26:56.632Z,11.90
2019-05-17T06:37:02.381Z,12.00
2019-05-17T06:47:08.004Z,12.20
2019-05-17T06:57:13.445Z,12.30
2019-05-17T07:07:30.442Z,12.10
2019-05-17T07:17:35.260Z,12.30
2019-05-17T07:27:44.686Z,12.70
2019-05-17T07:37:49.946Z,12.60
2019-05-17T07:47:54.976Z,12.80
2019-05-17T07:58:00.594Z,12.90
2019-05-17T08:08:06.000Z,13.00
2019-05-17T08:18:11.410Z,13.10
2019-05-17T08:28:17.937Z,13.20
2019-05-17T08:38:23.360Z,13.90
2019-05-17T08:48:29.434Z,13.30
2019-05-17T08:58:35.104Z,13.90
2019-05-17T09:08:40.669Z,14.40
2019-05-17T09:18:46.082Z,14.60
2019-05-17T09:28:51.558Z,15.20
2019-05-17T09:39:00.144Z,15.20
2019-05-17T09:59:14.514Z,15.10
2019-05-17T10:09:22.630Z,15.70
2019-05-17T10:39:41.653Z,16.60
2019-05-17T10:49:49.504Z,17.90
2019-05-17T11:10:00.557Z,17.40
2019-05-17T11:20:08.922Z,17.90
2019-05-17T11:30:15.051Z,18.20
2019-05-17T11:50:25.606Z,18.40
2019-05-17T12:00:31.635Z,18.50
2019-05-17T12:20:43.753Z,19.30
2019-05-17T12:30:49.156Z,19.60
2019-05-17T13:11:09.027Z,21.60
2019-05-17T13:21:14.426Z,21.00
2019-05-17T13:31:19.879Z,20.70
2019-05-17T13:41:25.470Z,21.00
2019-05-17T13:51:31.036Z,21.10
2019-05-17T14:01:36.714Z,21.20
2019-05-17T14:11:42.154Z,20.90
2019-05-17T14:21:47.637Z,20.50
2019-05-17T14:31:53.156Z,20.00
2019-05-17T14:41:58.675Z,19.70
2019-05-17T14:52:04.130Z,19.50
2019-05-17T15:02:09.605Z,19.30
2019-05-17T15:12:27.156Z,19.00
2019-05-17T15:22:22.156Z,18.90
2019-05-17T15:32:28.019Z,18.70
2019-05-17T15:42:43.769Z,18.20
2019-05-17T16:02:45.474Z,16.80
2019-05-17T16:13:01.563Z,16.30
2019-05-17T16:22:58.020Z,16.30
2019-05-17T16:33:03.523Z,16.40
2019-05-17T16:43:17.969Z,16.90
2019-05-17T16:53:18.258Z,17.10
2019-05-17T17:03:23.685Z,17.20
2019-05-17T17:13:33.105Z,17.30
2019-05-17T17:23:36.185Z,17.10
2019-05-17T17:33:41.637Z,16.80
2019-05-17T17:43:57.949Z,16.40
2019-05-17T17:53:54.100Z,16.30
2019-05-17T18:03:59.554Z,16.10
2019-05-17T18:14:12.982Z,15.90
2019-05-17T18:24:15.355Z,15.70
2019-05-17T18:34:20.823Z,15.50
2019-05-17T18:44:28.177Z,15.20
2019-05-17T18:54:33.778Z,14.80
2019-05-17T19:04:41.334Z,14.10
2019-05-17T19:14:48.841Z,14.00
2019-05-17T21:26:15.397Z,13.90
2019-05-17T21:36:25.099Z,13.70
2019-05-17T21:56:38.402Z,13.60
2019-05-17T22:16:50.868Z,13.10
2019-05-17T22:26:56.279Z,13.00
2019-05-17T22:37:03.833Z,12.70
2019-05-17T23:17:23.796Z,12.40
2019-05-17T23:27:29.274Z,12.40
